createdAt,value
2022-08-14T18:31:22.886Z,10.50
2022-08-14T18:34:06.707Z,13.70
2022-08-14T18:36:54.390Z,13.20
2022-08-14T18:39:34.635Z,10.10
2022-08-14T18:42:24.355Z,17.00
2022-08-14T18:45:15.590Z,24.70
2022-08-14T18:48:16.036Z,26.80
2022-08-14T18:50:52.631Z,21.90
2022-08-14T18:53:24.959Z,22.50
2022-08-14T18:56:00.005Z,22.00
2022-08-14T18:58:57.083Z,40.70
2022-08-14T19:01:29.579Z,46.60
2022-08-14T19:04:01.542Z,12.00
2022-08-14T19:06:56.009Z,38.30
2022-08-14T19:10:06.135Z,8.90
2022-08-14T19:12:53.256Z,10.70
2022-08-14T19:15:25.736Z,10.10
2022-08-14T19:18:15.134Z,8.70
2022-08-14T19:20:53.640Z,10.10
2022-08-14T19:23:42.116Z,9.10
2022-08-14T19:26:33.920Z,8.00
2022-08-14T19:29:38.250Z,11.20
2022-08-14T19:32:39.489Z,12.40
2022-08-14T19:38:47.894Z,9.00
2022-08-14T19:41:19.978Z,9.20
2022-08-14T19:43:57.026Z,13.10
2022-08-14T19:46:39.114Z,11.70
2022-08-14T19:49:21.586Z,8.40
2022-08-14T19:52:21.003Z,8.70
2022-08-14T19:54:51.382Z,19.40
2022-08-14T19:57:28.957Z,14.60
2022-08-14T20:00:28.515Z,21.20
2022-08-14T20:03:11.375Z,14.20
2022-08-14T20:05:46.019Z,8.10
2022-08-14T20:09:06.136Z,10.70
2022-08-14T20:12:00.141Z,9.50
2022-08-14T20:14:41.599Z,11.90
2022-08-14T20:17:25.584Z,11.00
2022-08-14T20:19:55.283Z,8.40
2022-08-14T20:22:38.508Z,9.70
2022-08-14T20:25:21.691Z,8.00
2022-08-14T20:27:59.517Z,8.20
2022-08-14T20:30:34.557Z,7.70
2022-08-14T20:33:11.248Z,10.50
2022-08-14T20:35:43.481Z,6.70
2022-08-14T20:38:32.542Z,10.30
2022-08-14T20:41:10.600Z,9.00
2022-08-14T20:44:00.896Z,7.70
2022-08-14T20:46:42.283Z,8.00
2022-08-14T20:49:18.535Z,7.80
2022-08-14T20:51:59.402Z,8.90
2022-08-14T20:54:37.006Z,10.60
2022-08-14T20:57:21.005Z,12.40
2022-08-14T20:59:57.354Z,11.50
2022-08-14T21:02:38.451Z,10.40
2022-08-14T21:05:33.740Z,9.60
2022-08-14T21:08:09.505Z,10.20
2022-08-14T21:10:49.372Z,10.00
2022-08-14T21:14:09.307Z,9.00
2022-08-14T21:18:59.905Z,9.40
2022-08-14T21:21:40.879Z,10.90
2022-08-14T21:24:38.670Z,20.30
2022-08-14T21:27:13.257Z,11.60
2022-08-14T21:29:55.371Z,7.20
2022-08-14T21:32:34.836Z,9.40
2022-08-14T21:35:08.761Z,10.50
2022-08-14T21:37:43.584Z,17.30
2022-08-14T21:40:41.195Z,10.10
2022-08-14T21:43:18.553Z,8.80
2022-08-14T21:45:56.181Z,10.30
2022-08-14T21:48:30.110Z,10.80
2022-08-14T21:51:54.461Z,15.40
2022-08-14T21:53:58.609Z,8.00
2022-08-14T21:56:39.468Z,10.30
2022-08-14T21:59:17.927Z,27.00
2022-08-14T22:02:00.362Z,41.10
2022-08-14T22:04:40.615Z,62.50
2022-08-14T22:07:16.786Z,42.30
2022-08-14T22:09:55.193Z,38.80
2022-08-14T22:12:45.421Z,12.10
2022-08-14T22:15:17.074Z,8.50
2022-08-14T22:17:54.573Z,20.80
2022-08-14T22:20:27.823Z,14.50
2022-08-14T22:23:03.030Z,9.00
2022-08-14T22:25:40.859Z,10.40
2022-08-14T22:28:19.967Z,10.70
2022-08-14T22:30:54.792Z,22.00
2022-08-14T22:33:31.081Z,34.40
2022-08-14T22:36:25.189Z,25.90
2022-08-14T22:38:55.871Z,9.90
2022-08-14T22:41:32.559Z,12.20
2022-08-14T22:44:29.311Z,9.00
2022-08-14T22:47:01.470Z,9.50
2022-08-14T22:50:31.115Z,10.30
2022-08-14T22:55:06.006Z,11.00
2022-08-14T22:57:43.317Z,10.30
2022-08-14T23:00:31.256Z,11.60
2022-08-14T23:03:17.235Z,13.00
2022-08-14T23:05:52.737Z,10.90
2022-08-14T23:08:58.446Z,12.70
2022-08-14T23:11:15.415Z,10.80
2022-08-14T23:13:46.153Z,11.90
2022-08-14T23:16:19.852Z,11.60
2022-08-14T23:18:53.983Z,13.20
2022-08-14T23:21:25.246Z,11.20
2022-08-14T23:23:58.393Z,10.70
2022-08-14T23:26:48.842Z,12.20
2022-08-14T23:29:18.442Z,13.40
2022-08-14T23:31:50.627Z,13.20
2022-08-14T23:34:21.611Z,12.60
2022-08-14T23:36:56.023Z,15.10
2022-08-14T23:39:32.305Z,11.50
2022-08-14T23:42:07.627Z,11.90
2022-08-14T23:44:39.010Z,15.30
2022-08-14T23:47:25.658Z,13.50
2022-08-14T23:50:03.863Z,12.30
2022-08-14T23:52:56.013Z,12.70
2022-08-14T23:55:30.800Z,11.80
2022-08-14T23:58:01.066Z,10.70
